Česky Dansk Deutsch English Español Suomi Français Magyar Italiano Nederlands norsk Polski Português svenska Türkçe

 

Het Weer

Neuquen Aerodrome (Argentinië)

08:00, 1 augustus 2016 (GMT)

NWNNE
WE
SWSSE
Home            
Neuquen Aerodrome Chapelco San Antonio Oeste Aerodrome Rio Colorado Bariloche Aerodrome Temuco Malargue Aerodrome Santa Rosa Aerodrome Valdivia Chillan El Bolson Aerodrome Viedma Aerodrome San Rafael Aerodrome Puerto Madryn, CHT Concepcion Puerto Montt Esquel Aerodrome Bahia Blanca Aerodrome Curico Pigue Aerodrome General Pico Aerodrome Trelew Aerodrome Paso De Indios

Om een weerknop op uw website of weblog te plaatsen, copieer onderstaande code en plak die in uw pagina. In het eerste vakje staat HTML-code, in het tweede vakje UBB-code.


Add to Google

Details

Visibility: 100 m, 0.1 km, 328 ft, 0.1 miles
Het Weer:moderate fog
Temperature:3°C, 37°F
Dew-point:3°C, 37°F
Atmospheric pressure:1024 hPa, 768.1 mmHg, 30.24 inHg, 1.011 atm
Relative humidity:100.0 %
METAR:SAZN 010800Z 00000KT 0100 FG VV 03/03 Q1024

Snelkoppelingen

Actuele weersinformatie van de hele wereld. Voeg locaties toe met het plus (+) symbool. Deze snelkoppelingen kunnen worden toegevoegd aan Google.

Lid van de Technetium groep

website free tracking
StatCounter NetStat W3C Validator

20-07-2018 01:16:08
astro.technetium.be money.technetium.be phote.technetium.be tafeltennistafel.technetium.be www.ligfiets.net